createdAt,value
2018-10-03T00:01:29.222Z,99.90
2018-10-03T00:03:58.047Z,99.90
2018-10-03T00:06:26.834Z,99.90
2018-10-03T00:08:55.765Z,99.90
2018-10-03T00:11:25.167Z,99.90
2018-10-03T00:13:53.963Z,99.90
2018-10-03T00:16:22.801Z,99.90
2018-10-03T00:18:51.615Z,99.90
2018-10-03T00:21:20.434Z,99.90
2018-10-03T00:23:49.223Z,99.90
2018-10-03T00:26:18.022Z,99.90
2018-10-03T00:28:46.868Z,99.90
2018-10-03T00:31:15.639Z,99.90
2018-10-03T00:33:44.490Z,99.90
2018-10-03T00:36:13.283Z,99.90
2018-10-03T00:38:42.132Z,99.90
2018-10-03T00:41:10.914Z,99.90
2018-10-03T00:43:39.703Z,99.90
2018-10-03T00:46:08.538Z,99.90
2018-10-03T00:48:37.350Z,99.90
2018-10-03T00:51:06.178Z,99.90
2018-10-03T00:53:34.963Z,99.90
2018-10-03T00:56:04.094Z,99.90
2018-10-03T00:58:33.022Z,99.90
2018-10-03T01:01:01.885Z,99.90
2018-10-03T01:03:30.956Z,99.90
2018-10-03T01:05:59.798Z,99.90
2018-10-03T01:08:28.694Z,99.90
2018-10-03T01:10:57.488Z,99.90
2018-10-03T01:13:26.299Z,99.90
2018-10-03T01:15:55.106Z,99.90
2018-10-03T01:18:23.938Z,99.90
2018-10-03T01:20:52.752Z,99.90
2018-10-03T01:23:21.567Z,99.90
2018-10-03T01:25:50.363Z,99.90
2018-10-03T01:28:19.227Z,99.90
2018-10-03T01:30:48.099Z,99.90
2018-10-03T01:33:16.891Z,99.90
2018-10-03T01:35:45.732Z,99.90
2018-10-03T01:38:14.625Z,99.90
2018-10-03T01:40:43.437Z,99.90
2018-10-03T01:43:12.283Z,99.90
2018-10-03T01:45:41.103Z,99.90
2018-10-03T01:48:09.934Z,99.90
2018-10-03T01:50:38.738Z,99.90
2018-10-03T01:53:07.563Z,99.90
2018-10-03T01:55:43.268Z,99.90
2018-10-03T01:58:12.073Z,99.90
2018-10-03T02:00:41.003Z,99.90
2018-10-03T02:03:09.871Z,99.90
2018-10-03T02:05:38.663Z,99.90
2018-10-03T02:08:07.490Z,99.90
2018-10-03T02:10:36.282Z,99.90
2018-10-03T02:13:05.235Z,99.90
2018-10-03T02:15:34.055Z,99.90
2018-10-03T02:18:02.878Z,99.90
2018-10-03T02:20:31.702Z,99.90
2018-10-03T02:23:00.522Z,99.90
2018-10-03T02:25:29.346Z,99.90
2018-10-03T02:27:58.163Z,99.90
2018-10-03T02:30:27.024Z,99.90
2018-10-03T02:32:55.831Z,99.90
2018-10-03T02:35:25.078Z,99.90
2018-10-03T02:37:53.882Z,99.90
2018-10-03T02:40:22.787Z,99.90
2018-10-03T02:42:51.700Z,99.90
2018-10-03T02:45:21.217Z,99.90
2018-10-03T02:47:51.439Z,99.90
2018-10-03T02:50:20.410Z,99.90
2018-10-03T02:52:49.218Z,99.90
2018-10-03T02:55:18.090Z,99.90
2018-10-03T02:57:46.888Z,99.90
2018-10-03T03:00:16.098Z,99.90
2018-10-03T03:02:47.662Z,99.90
2018-10-03T03:05:16.485Z,99.90
2018-10-03T03:07:45.290Z,99.90
2018-10-03T03:10:14.182Z,99.90
2018-10-03T03:12:42.973Z,99.90
2018-10-03T03:15:11.855Z,99.90
2018-10-03T03:17:40.678Z,99.90
2018-10-03T03:20:09.548Z,99.90
2018-10-03T03:22:38.396Z,99.90
2018-10-03T03:25:07.226Z,99.90
2018-10-03T03:27:36.080Z,99.90
2018-10-03T03:30:05.087Z,99.90
2018-10-03T03:32:33.947Z,99.90
2018-10-03T03:35:02.782Z,99.90
2018-10-03T03:37:31.579Z,99.90
2018-10-03T03:40:00.462Z,99.90
2018-10-03T03:42:29.253Z,99.90
2018-10-03T03:44:58.060Z,99.90
2018-10-03T03:47:26.837Z,99.90
2018-10-03T03:49:55.715Z,99.90
2018-10-03T03:52:24.581Z,99.90
2018-10-03T03:54:53.387Z,99.90
2018-10-03T03:57:22.208Z,99.90
2018-10-03T03:59:51.067Z,99.90
2018-10-03T04:02:20.047Z,99.90
2018-10-03T04:04:48.883Z,99.90
2018-10-03T04:07:17.814Z,99.90
2018-10-03T04:09:46.744Z,99.90
2018-10-03T04:12:15.552Z,99.90
2018-10-03T04:14:44.360Z,99.90
2018-10-03T04:17:13.164Z,99.90
2018-10-03T04:19:42.035Z,99.90
2018-10-03T04:22:10.842Z,99.90
2018-10-03T04:24:39.763Z,99.90
2018-10-03T04:27:08.559Z,99.90
2018-10-03T04:29:37.440Z,99.90
2018-10-03T04:32:06.268Z,99.90
2018-10-03T04:34:35.083Z,99.90
2018-10-03T04:37:03.902Z,99.90
2018-10-03T04:39:32.707Z,99.90
2018-10-03T04:42:01.570Z,99.90
2018-10-03T04:44:30.395Z,99.90
2018-10-03T04:46:59.199Z,99.90
2018-10-03T04:49:28.078Z,99.90
2018-10-03T04:51:56.899Z,99.90
2018-10-03T04:54:25.708Z,99.90
2018-10-03T04:56:54.503Z,99.90
2018-10-03T04:59:28.314Z,99.90
2018-10-03T05:01:57.102Z,99.90
2018-10-03T05:04:25.930Z,99.90
2018-10-03T05:06:54.763Z,99.90
2018-10-03T05:09:23.683Z,99.90
2018-10-03T05:11:52.512Z,99.90
2018-10-03T05:14:33.303Z,99.90
2018-10-03T05:17:02.115Z,99.90
2018-10-03T05:19:31.021Z,99.90
2018-10-03T05:21:59.831Z,99.90
2018-10-03T05:24:28.632Z,99.90
2018-10-03T05:26:57.430Z,99.90
2018-10-03T05:29:26.279Z,99.90
2018-10-03T05:31:55.102Z,99.90
2018-10-03T05:34:23.955Z,99.90
2018-10-03T05:36:53.238Z,99.90
2018-10-03T05:39:22.156Z,99.90
2018-10-03T05:41:50.946Z,99.90
2018-10-03T05:44:19.767Z,99.90
2018-10-03T05:46:48.575Z,99.90
2018-10-03T05:49:17.403Z,99.90
2018-10-03T05:51:46.232Z,99.90
2018-10-03T05:54:15.055Z,99.90
2018-10-03T05:56:43.850Z,99.90
2018-10-03T05:59:13.947Z,99.90
2018-10-03T06:01:42.818Z,99.90
2018-10-03T06:04:11.634Z,99.90
2018-10-03T06:06:40.450Z,99.90
2018-10-03T06:09:11.080Z,99.90
2018-10-03T06:11:40.962Z,99.90
2018-10-03T06:14:09.956Z,99.90
2018-10-03T06:16:38.750Z,99.90
2018-10-03T06:19:07.677Z,99.90
2018-10-03T06:21:36.586Z,99.90
2018-10-03T06:24:05.439Z,99.90
2018-10-03T06:26:34.290Z,99.90
2018-10-03T06:29:03.228Z,99.90
2018-10-03T06:31:32.375Z,99.90
2018-10-03T06:34:01.364Z,99.90
2018-10-03T06:36:30.192Z,99.90
2018-10-03T06:38:59.046Z,99.90
2018-10-03T06:41:27.861Z,99.90
2018-10-03T06:43:56.679Z,99.90
2018-10-03T06:46:26.492Z,99.90
2018-10-03T06:48:55.706Z,99.90
2018-10-03T06:51:24.534Z,99.90
2018-10-03T06:53:53.394Z,99.90
2018-10-03T06:56:22.275Z,99.90
2018-10-03T06:58:51.192Z,99.90
2018-10-03T07:01:19.999Z,99.90
2018-10-03T07:03:48.911Z,99.90
2018-10-03T07:06:18.027Z,99.90
2018-10-03T07:08:47.119Z,99.90
2018-10-03T07:11:15.919Z,99.90
2018-10-03T07:13:44.751Z,99.90
2018-10-03T07:16:13.619Z,99.90
2018-10-03T07:18:42.663Z,99.90
2018-10-03T07:21:11.866Z,99.90
2018-10-03T07:23:40.679Z,99.90
2018-10-03T07:26:10.066Z,99.90
2018-10-03T07:28:39.015Z,99.90
2018-10-03T07:31:08.010Z,99.90
2018-10-03T07:33:37.249Z,99.90
2018-10-03T07:36:06.817Z,99.90
2018-10-03T07:38:35.808Z,99.90
2018-10-03T07:41:05.420Z,99.90
2018-10-03T07:43:34.787Z,99.90
2018-10-03T07:46:03.703Z,99.90
2018-10-03T07:48:32.655Z,99.90
2018-10-03T07:51:01.508Z,99.90
2018-10-03T07:53:30.381Z,99.90
2018-10-03T07:55:59.220Z,99.90
2018-10-03T07:58:28.191Z,99.90
2018-10-03T08:00:57.068Z,99.90
2018-10-03T08:03:25.862Z,99.90
2018-10-03T08:05:54.683Z,99.90
2018-10-03T08:08:23.483Z,99.90
2018-10-03T08:10:52.285Z,99.90
2018-10-03T08:13:21.098Z,99.90
2018-10-03T08:15:49.950Z,99.90
2018-10-03T08:18:18.836Z,99.90
2018-10-03T08:20:47.655Z,99.90
2018-10-03T08:23:16.504Z,99.90
2018-10-03T08:25:45.318Z,99.90
2018-10-03T08:28:14.207Z,99.90
2018-10-03T08:30:43.044Z,99.90
2018-10-03T08:33:11.924Z,99.90
2018-10-03T08:35:40.731Z,99.90
2018-10-03T08:38:09.531Z,99.90
2018-10-03T08:40:38.340Z,99.90
2018-10-03T08:43:07.889Z,99.90
2018-10-03T08:45:36.769Z,99.90
2018-10-03T08:48:06.089Z,99.90
2018-10-03T08:50:34.910Z,99.90
2018-10-03T08:53:03.769Z,99.90
2018-10-03T08:55:32.615Z,99.90
2018-10-03T08:58:01.542Z,99.90
2018-10-03T09:00:30.983Z,99.90
2018-10-03T09:02:59.803Z,99.90
2018-10-03T09:05:28.643Z,99.90
2018-10-03T09:08:06.746Z,99.90
2018-10-03T09:10:35.573Z,99.90
2018-10-03T09:13:04.443Z,99.90
2018-10-03T09:15:33.228Z,99.90
2018-10-03T09:18:02.062Z,99.90
2018-10-03T09:20:30.963Z,99.90
2018-10-03T09:22:59.795Z,99.90
2018-10-03T09:25:28.626Z,99.90
2018-10-03T09:27:57.423Z,99.90
2018-10-03T09:30:26.329Z,99.90
2018-10-03T09:32:55.171Z,99.90
2018-10-03T09:35:23.990Z,99.90
2018-10-03T09:37:52.956Z,99.90
2018-10-03T09:40:21.927Z,99.90
2018-10-03T09:42:50.777Z,99.90
2018-10-03T09:45:19.614Z,99.90
2018-10-03T09:47:48.643Z,99.90
2018-10-03T09:50:17.556Z,99.90
2018-10-03T09:52:46.408Z,99.90
2018-10-03T09:55:15.745Z,99.90
2018-10-03T09:57:44.659Z,99.90
2018-10-03T10:00:20.821Z,99.90
2018-10-03T10:02:52.602Z,99.90
2018-10-03T10:05:21.449Z,99.90
2018-10-03T10:07:50.279Z,99.90
2018-10-03T10:10:19.236Z,99.90
2018-10-03T10:12:48.039Z,99.90
2018-10-03T10:15:16.844Z,99.90
2018-10-03T10:17:45.677Z,99.90
2018-10-03T10:20:15.041Z,99.90
2018-10-03T10:22:43.870Z,99.90
2018-10-03T10:25:12.696Z,99.90
2018-10-03T10:27:41.546Z,99.90
2018-10-03T10:30:10.443Z,99.90
2018-10-03T10:32:39.328Z,99.90
2018-10-03T10:35:08.131Z,99.90
2018-10-03T10:37:37.159Z,99.90
2018-10-03T10:40:06.162Z,99.90
2018-10-03T10:42:34.930Z,99.90
2018-10-03T10:45:04.006Z,99.90
2018-10-03T10:47:32.819Z,99.90
2018-10-03T10:50:01.672Z,99.90
2018-10-03T10:52:30.491Z,99.90
2018-10-03T10:54:59.291Z,99.90
2018-10-03T10:57:28.100Z,99.90
2018-10-03T10:59:56.894Z,99.90
2018-10-03T11:02:25.811Z,99.90
2018-10-03T11:04:54.623Z,99.90
2018-10-03T11:07:23.497Z,99.90
2018-10-03T11:09:52.375Z,99.90
2018-10-03T11:12:21.235Z,99.90
2018-10-03T11:14:50.055Z,99.90
2018-10-03T11:17:18.880Z,99.50
2018-10-03T11:19:47.822Z,99.80
2018-10-03T11:22:16.650Z,99.10
2018-10-03T11:24:45.635Z,99.00
2018-10-03T11:27:14.365Z,99.10
2018-10-03T11:29:43.247Z,98.70
2018-10-03T11:32:12.262Z,98.80
2018-10-03T11:34:41.002Z,97.90
2018-10-03T11:37:09.939Z,98.00
2018-10-03T11:39:38.877Z,98.10
2018-10-03T11:42:07.731Z,99.00
2018-10-03T11:44:36.608Z,99.20
2018-10-03T11:47:05.423Z,98.30
2018-10-03T11:49:34.288Z,98.50
2018-10-03T11:52:03.116Z,98.50
2018-10-03T11:54:32.030Z,98.00
2018-10-03T11:57:00.971Z,99.10
2018-10-03T11:59:29.862Z,99.40
2018-10-03T12:01:58.882Z,99.60
2018-10-03T12:04:27.763Z,99.50
2018-10-03T12:06:57.183Z,99.90
2018-10-03T12:09:26.186Z,99.90
2018-10-03T12:11:55.039Z,99.90
2018-10-03T12:14:23.859Z,99.90
2018-10-03T12:16:52.707Z,99.90
2018-10-03T12:19:21.619Z,99.20
2018-10-03T12:21:50.440Z,98.30
2018-10-03T12:24:19.262Z,99.90
2018-10-03T12:26:48.102Z,99.00
2018-10-03T12:29:16.970Z,99.90
2018-10-03T12:31:45.803Z,99.90
2018-10-03T12:34:14.606Z,99.50
2018-10-03T12:36:43.415Z,99.50
2018-10-03T12:39:12.377Z,99.90
2018-10-03T12:41:41.227Z,99.90
2018-10-03T12:44:10.073Z,99.90
2018-10-03T12:46:39.169Z,99.90
2018-10-03T12:49:07.984Z,99.90
2018-10-03T12:51:36.847Z,99.90
2018-10-03T12:54:06.086Z,99.90
2018-10-03T12:56:34.918Z,99.90
2018-10-03T12:59:04.569Z,99.90
2018-10-03T13:01:35.064Z,99.90
2018-10-03T13:04:03.938Z,99.40
2018-10-03T13:06:32.752Z,99.90
2018-10-03T13:09:01.616Z,99.90
2018-10-03T13:11:30.448Z,99.90
2018-10-03T13:13:59.342Z,99.90
2018-10-03T13:16:28.211Z,99.70
2018-10-03T13:18:57.074Z,99.90
2018-10-03T13:21:25.860Z,99.90
2018-10-03T13:23:54.690Z,99.90
2018-10-03T13:26:23.530Z,99.90
2018-10-03T13:28:52.319Z,99.90
2018-10-03T13:31:21.167Z,99.90
2018-10-03T13:33:50.007Z,99.90
2018-10-03T13:36:18.862Z,99.90
2018-10-03T13:38:47.762Z,99.90
2018-10-03T13:41:16.654Z,99.90
2018-10-03T13:43:45.491Z,99.90
2018-10-03T13:46:14.300Z,99.90
2018-10-03T13:48:43.239Z,99.90
2018-10-03T13:51:12.060Z,99.90
2018-10-03T13:53:40.892Z,99.90
2018-10-03T13:56:09.720Z,99.90
2018-10-03T13:58:38.590Z,99.90
2018-10-03T14:01:07.439Z,99.90
2018-10-03T14:03:36.274Z,99.90
2018-10-03T14:06:05.170Z,99.90
2018-10-03T14:08:34.095Z,99.90
2018-10-03T14:11:03.014Z,99.90
2018-10-03T14:13:31.827Z,99.90
2018-10-03T14:16:00.694Z,99.90
2018-10-03T14:18:29.615Z,99.90
2018-10-03T14:20:58.417Z,99.90
2018-10-03T14:23:27.210Z,99.90
2018-10-03T14:25:55.998Z,99.90
2018-10-03T14:28:24.871Z,99.90
2018-10-03T14:30:53.666Z,99.90
2018-10-03T14:33:22.570Z,99.90
2018-10-03T14:35:51.363Z,99.90
2018-10-03T14:38:20.206Z,99.90
2018-10-03T14:40:49.039Z,99.90
2018-10-03T14:43:17.843Z,99.90
2018-10-03T14:45:46.687Z,99.90
2018-10-03T14:48:15.508Z,99.90
2018-10-03T14:50:44.335Z,99.90
2018-10-03T14:53:13.164Z,99.90
2018-10-03T14:55:41.979Z,99.90
2018-10-03T14:58:17.637Z,99.90
2018-10-03T15:00:46.503Z,99.90
2018-10-03T15:03:15.318Z,99.90
2018-10-03T15:05:44.088Z,99.90
2018-10-03T15:08:12.900Z,99.90
2018-10-03T15:10:41.729Z,99.90
2018-10-03T15:13:10.587Z,99.90
2018-10-03T15:15:39.423Z,99.90
2018-10-03T15:18:08.241Z,99.90
2018-10-03T15:20:37.164Z,99.90
2018-10-03T15:23:06.035Z,99.90
2018-10-03T15:25:34.866Z,99.90
2018-10-03T15:28:03.720Z,99.90
2018-10-03T15:30:32.544Z,99.90
2018-10-03T15:33:01.364Z,99.90
2018-10-03T15:35:30.271Z,99.90
2018-10-03T15:37:59.379Z,99.90
2018-10-03T15:40:28.371Z,99.90
2018-10-03T15:42:57.163Z,99.90
2018-10-03T15:45:26.043Z,99.90
2018-10-03T15:47:54.859Z,99.90
2018-10-03T15:50:23.671Z,99.90
2018-10-03T15:52:52.510Z,99.90
2018-10-03T15:55:21.353Z,99.90
2018-10-03T15:57:50.212Z,99.90
2018-10-03T16:00:27.477Z,99.90
2018-10-03T16:02:56.387Z,99.90
2018-10-03T16:05:25.184Z,99.90
2018-10-03T16:07:54.015Z,99.90
2018-10-03T16:10:22.885Z,99.90
2018-10-03T16:12:51.696Z,99.90
2018-10-03T16:15:20.585Z,99.90
2018-10-03T16:17:49.411Z,99.90
2018-10-03T16:20:18.331Z,99.90
2018-10-03T16:22:47.131Z,99.90
2018-10-03T16:25:15.964Z,99.90
2018-10-03T16:27:44.812Z,99.90
2018-10-03T16:30:13.739Z,99.90
2018-10-03T16:32:42.565Z,99.90
2018-10-03T16:35:11.382Z,99.90
2018-10-03T16:37:40.231Z,99.90
2018-10-03T16:40:09.107Z,99.90
2018-10-03T16:42:38.387Z,99.90
2018-10-03T16:45:07.226Z,99.90
2018-10-03T16:47:36.062Z,99.90
2018-10-03T16:50:05.212Z,99.90
2018-10-03T16:52:33.963Z,99.90
2018-10-03T16:55:02.790Z,99.90
2018-10-03T16:57:31.601Z,99.90
2018-10-03T17:00:00.523Z,99.90
2018-10-03T17:02:29.317Z,99.90
2018-10-03T17:04:58.116Z,99.90
2018-10-03T17:07:26.940Z,99.90
2018-10-03T17:09:55.855Z,99.90
2018-10-03T17:12:24.665Z,99.90
2018-10-03T17:14:53.472Z,99.90
2018-10-03T17:17:22.323Z,99.90
2018-10-03T17:19:51.237Z,99.90
2018-10-03T17:22:20.109Z,99.90
2018-10-03T17:24:48.928Z,99.90
2018-10-03T17:27:17.812Z,99.90
2018-10-03T17:29:46.675Z,99.90
2018-10-03T17:32:16.179Z,99.90
2018-10-03T17:34:44.986Z,99.90
2018-10-03T17:37:13.834Z,99.90
2018-10-03T17:39:42.749Z,99.90
2018-10-03T17:42:11.556Z,99.90
2018-10-03T17:44:40.367Z,99.90
2018-10-03T17:47:09.295Z,99.90
2018-10-03T17:49:38.207Z,99.90
2018-10-03T17:52:07.055Z,99.90
2018-10-03T17:54:35.891Z,99.90
2018-10-03T17:57:04.732Z,99.90
2018-10-03T17:59:33.600Z,99.90
2018-10-03T18:02:05.551Z,99.90
2018-10-03T18:04:34.416Z,99.90
2018-10-03T18:07:03.242Z,99.90
2018-10-03T18:09:32.107Z,99.90
2018-10-03T18:12:03.844Z,99.90
2018-10-03T18:14:32.751Z,99.90
2018-10-03T18:17:01.532Z,99.90
2018-10-03T18:19:30.463Z,99.90
2018-10-03T18:21:59.360Z,99.90
2018-10-03T18:24:28.120Z,99.90
2018-10-03T18:26:56.955Z,99.90
2018-10-03T18:29:25.798Z,99.90
2018-10-03T18:31:54.687Z,99.90
2018-10-03T18:34:23.552Z,99.90
2018-10-03T18:36:53.110Z,99.90
2018-10-03T18:39:22.113Z,99.90
2018-10-03T18:41:51.032Z,99.90
2018-10-03T18:44:19.994Z,99.90
2018-10-03T18:46:49.696Z,99.90
2018-10-03T18:49:19.943Z,99.90
2018-10-03T18:51:48.889Z,99.90
2018-10-03T18:54:17.704Z,99.90
2018-10-03T18:56:46.589Z,99.90
2018-10-03T18:59:20.939Z,99.90
2018-10-03T19:01:52.765Z,99.90
2018-10-03T19:04:21.652Z,99.90
2018-10-03T19:06:50.519Z,99.90
2018-10-03T19:09:19.438Z,99.90
2018-10-03T19:11:48.271Z,99.90
2018-10-03T19:14:17.709Z,99.90
2018-10-03T19:16:46.683Z,99.90
2018-10-03T19:19:16.207Z,99.90
2018-10-03T19:21:45.710Z,99.90
2018-10-03T19:24:14.591Z,99.90
2018-10-03T19:26:44.409Z,99.90
2018-10-03T19:29:13.427Z,99.90
2018-10-03T19:31:42.320Z,99.90
2018-10-03T19:34:11.139Z,99.90
2018-10-03T19:36:40.000Z,99.90
2018-10-03T19:39:09.292Z,99.90
2018-10-03T19:41:38.523Z,99.90
2018-10-03T19:44:07.424Z,99.90
2018-10-03T19:46:36.547Z,99.90
2018-10-03T19:49:06.366Z,99.90
2018-10-03T19:51:35.215Z,99.90
2018-10-03T19:54:04.371Z,99.90
2018-10-03T19:56:33.195Z,99.90
2018-10-03T19:59:03.342Z,99.90
2018-10-03T20:01:32.595Z,99.90
2018-10-03T20:04:01.607Z,99.90
2018-10-03T20:06:32.176Z,99.90
2018-10-03T20:09:01.214Z,99.90
2018-10-03T20:11:30.408Z,99.90
2018-10-03T20:13:59.403Z,99.90
2018-10-03T20:16:28.239Z,99.90
2018-10-03T20:18:58.257Z,99.90
2018-10-03T20:21:27.188Z,99.90
2018-10-03T20:23:55.987Z,99.90
2018-10-03T20:26:24.877Z,99.90
2018-10-03T20:28:53.794Z,99.90
2018-10-03T20:31:22.640Z,99.90
2018-10-03T20:33:51.463Z,99.90
2018-10-03T20:36:20.331Z,99.90
2018-10-03T20:38:49.206Z,99.90
2018-10-03T20:41:18.495Z,99.90
2018-10-03T20:43:47.406Z,99.90
2018-10-03T20:46:16.238Z,99.90
2018-10-03T20:48:45.164Z,99.90
2018-10-03T20:51:13.958Z,99.90
2018-10-03T20:53:42.779Z,99.90
2018-10-03T20:56:11.572Z,99.90
2018-10-03T20:58:40.435Z,99.90
2018-10-03T21:01:09.239Z,99.90
2018-10-03T21:03:38.055Z,99.90
2018-10-03T21:06:06.991Z,99.90
2018-10-03T21:08:35.992Z,99.90
2018-10-03T21:11:04.837Z,99.90
2018-10-03T21:13:33.634Z,99.90
2018-10-03T21:16:02.590Z,99.90
2018-10-03T21:18:31.531Z,99.90
2018-10-03T21:21:00.383Z,99.90
2018-10-03T21:23:30.039Z,99.90
2018-10-03T21:25:58.840Z,99.90
2018-10-03T21:28:27.743Z,99.90
2018-10-03T21:30:56.495Z,99.90
2018-10-03T21:33:25.303Z,99.90
2018-10-03T21:35:54.131Z,99.90
2018-10-03T21:38:22.952Z,99.90
2018-10-03T21:40:51.751Z,99.90
2018-10-03T21:43:20.582Z,99.90
2018-10-03T21:45:49.435Z,99.90
2018-10-03T21:48:18.247Z,99.90
2018-10-03T21:50:47.022Z,99.90
2018-10-03T21:53:15.810Z,99.90
2018-10-03T21:55:44.602Z,99.90
2018-10-03T21:58:13.431Z,99.90
2018-10-03T22:00:47.843Z,99.90
2018-10-03T22:03:16.663Z,99.90
2018-10-03T22:05:45.474Z,99.90
2018-10-03T22:08:14.313Z,99.90
2018-10-03T22:10:43.412Z,99.90
2018-10-03T22:13:12.203Z,99.90
2018-10-03T22:15:41.050Z,99.90
2018-10-03T22:18:09.877Z,99.90
2018-10-03T22:20:38.737Z,99.90
2018-10-03T22:23:07.725Z,99.90
2018-10-03T22:25:36.540Z,99.90
2018-10-03T22:28:05.470Z,99.90
2018-10-03T22:30:34.434Z,99.90
2018-10-03T22:33:03.250Z,99.90
2018-10-03T22:35:32.082Z,99.90
2018-10-03T22:38:00.878Z,99.90
2018-10-03T22:40:29.763Z,99.90
2018-10-03T22:42:58.566Z,99.90
2018-10-03T22:45:27.367Z,99.90
2018-10-03T22:47:56.198Z,99.90
2018-10-03T22:50:25.007Z,99.90
2018-10-03T22:52:53.831Z,99.90
2018-10-03T22:55:22.624Z,99.90
2018-10-03T22:57:51.442Z,99.90
2018-10-03T23:00:21.306Z,99.90
2018-10-03T23:02:51.894Z,99.90
2018-10-03T23:05:20.716Z,99.90
2018-10-03T23:07:49.544Z,99.90
2018-10-03T23:10:18.386Z,99.90
2018-10-03T23:12:47.203Z,99.90
2018-10-03T23:15:16.032Z,99.90
2018-10-03T23:17:44.823Z,99.90
2018-10-03T23:20:13.771Z,99.90
2018-10-03T23:22:42.688Z,99.90
2018-10-03T23:25:11.493Z,99.90
2018-10-03T23:27:40.308Z,99.90
2018-10-03T23:30:09.303Z,99.90
2018-10-03T23:32:38.162Z,99.90
2018-10-03T23:35:06.975Z,99.90
2018-10-03T23:37:35.787Z,99.90
2018-10-03T23:40:04.705Z,99.90
2018-10-03T23:42:33.523Z,99.90
2018-10-03T23:45:02.347Z,99.90
2018-10-03T23:47:31.165Z,99.90
2018-10-03T23:50:00.023Z,99.90
2018-10-03T23:52:28.826Z,99.90
2018-10-03T23:54:57.671Z,99.90
2018-10-03T23:57:26.468Z,99.90
2018-10-03T23:59:55.380Z,99.90
